Nome Airport
PAOM : now visible

Aeroporto :











RITROVATECI SU...

 
LOGIN :

Iscrizione | Disclaimer

   EN    FR    IT 

 









Sommario :    VFR   VFR Marginale   IFR   IFR Intensivo   IFR Molto Intensivo
Visibilità : 
Base nubi : 
>= 8 km
>= 3000ft
5 / 8 km
1000 / 3000 ft
1500m / 5 km
500 / 1000 ft
800 / 1500m
200 / 500 ft
< 800m
< 200 ft
Simboli :   Temporali  Nebbia  Neve Forte  Precipitazioni Forti  Vento > 20 kt






- Altitudine del aeroporto : 37 ft
- Codice IATA : OME


PAOM - Nome

ULTIMO METAR :
  • 011953Z 00000KT 10SM BKN100 16/07 A2952 RMK AO2 SLP996 VIRGA SW-W T01610067

METARs OBSOLETI :
  • 011853Z 15004KT 10SM SCT090 SCT110 14/07 A2952 RMK AO2 SLP996 T01390072
  • 011753Z 13005KT 10SM BKN100 11/07 A2951 RMK AO2 SLP993 T01110067 10139 20100 53006
  • 011653Z 00000KT 10SM BKN110 13/06 A2950 RMK AO2 SLP989 T01280061

TAF PAOM
Valido dal 01 a 18 ore il 02 a 18 ore UTC


011740Z 0118/0218 VRB03KT P6SM SCT050 BKN100
FM012300 25009KT P6SM VCSH SCT050 BKN100
FIR PAZA / America del Nord



MetMap, La meteo Aeronautica in un colpo d'occhio ! - Copyright ORBIFLY Dicembre 2007 - Disclaimer

ORBIFLY MET'MAP TEAM :

Programmazione e sviluppo : Alexandra Zaïnal
Concezione : Baudouin d'Aumeries
Aiuto per la programmazione : Marc-Olivier Méhu
Supporto tecnico e logistico : Manuel Goepfert
Aiuto per la traduzione : Arnaldo La Scala

Contatto : metmap@orbifly.com




FONTI E CREDITI :

   NOAA       Earth
Advisory